Time,TemperatureF,DewpointF,PressureIn,WindDirection,WindDirectionDegrees,WindSpeedMPH,WindSpeedGustMPH,Humidity,HourlyPrecipIn,Conditions,Clouds,dailyrainin,SolarRadiationWatts/m^2,SoftwareType,DateUTC
2013-02-10 00:01:00,30.0,16.0,-100.00,NNW,339,14.0,24.0,55,0.00,,,0.00,0.000000,,2013-02-10 07:01:00,
2013-02-10 00:32:00,29.0,15.0,-100.00,NNW,347,17.0,29.0,55,0.00,,,0.00,0.000000,,2013-02-10 07:32:00,
2013-02-10 00:42:00,29.0,15.0,-100.00,NNW,347,17.0,29.0,55,0.00,,,0.00,0.000000,,2013-02-10 07:42:00,
2013-02-10 00:52:00,29.0,15.0,-100.00,NNW,347,17.0,29.0,55,0.00,,,0.00,0.000000,,2013-02-10 07:52:00,
2013-02-10 01:01:00,29.0,15.0,-100.00,NNW,347,17.0,29.0,55,0.00,,,0.00,0.000000,,2013-02-10 08:01:00,
2013-02-10 01:32:00,28.0,13.0,-100.00,NNW,341,15.0,27.0,52,0.00,,,0.00,0.000000,,2013-02-10 08:32:00,
2013-02-10 01:43:00,28.0,13.0,-100.00,NNW,341,15.0,27.0,52,0.00,,,0.00,0.000000,,2013-02-10 08:43:00,
2013-02-10 01:52:00,28.0,13.0,-100.00,NNW,341,15.0,27.0,52,0.00,,,0.00,0.000000,,2013-02-10 08:52:00,
2013-02-10 02:01:00,28.0,13.0,-100.00,NNW,341,15.0,27.0,52,0.00,,,0.00,0.000000,,2013-02-10 09:01:00,
2013-02-10 02:21:00,28.0,12.0,-100.00,NNW,346,14.0,27.0,51,0.00,,,0.00,0.000000,,2013-02-10 09:21:00,
2013-02-10 02:32:00,28.0,12.0,-100.00,NNW,346,14.0,27.0,51,0.00,,,0.00,0.000000,,2013-02-10 09:32:00,
2013-02-10 02:42:00,28.0,12.0,-100.00,NNW,346,14.0,27.0,51,0.00,,,0.00,0.000000,,2013-02-10 09:42:00,
2013-02-10 02:52:00,28.0,12.0,-100.00,NNW,346,14.0,27.0,51,0.00,,,0.00,0.000000,,2013-02-10 09:52:00,
2013-02-10 03:01:00,28.0,12.0,-100.00,NNW,346,14.0,27.0,51,0.00,,,0.00,0.000000,,2013-02-10 10:01:00,
2013-02-10 03:32:00,28.0,11.0,-100.00,North,353,19.0,26.0,48,0.00,,,0.00,0.000000,,2013-02-10 10:32:00,
2013-02-10 03:42:00,28.0,11.0,-100.00,North,353,19.0,26.0,48,0.00,,,0.00,0.000000,,2013-02-10 10:42:00,
2013-02-10 03:52:00,28.0,11.0,-100.00,North,353,19.0,26.0,48,0.00,,,0.00,0.000000,,2013-02-10 10:52:00,
2013-02-10 04:01:00,28.0,11.0,-100.00,North,353,19.0,26.0,48,0.00,,,0.00,0.000000,,2013-02-10 11:01:00,
2013-02-10 04:22:00,25.0,12.0,-100.00,North,353,14.0,28.0,57,0.00,,,0.00,0.000000,,2013-02-10 11:22:00,
2013-02-10 04:32:00,25.0,12.0,-100.00,North,353,14.0,28.0,57,0.00,,,0.00,0.000000,,2013-02-10 11:32:00,
2013-02-10 04:42:00,25.0,12.0,-100.00,North,353,14.0,28.0,57,0.00,,,0.00,0.000000,,2013-02-10 11:42:00,
2013-02-10 04:52:00,25.0,12.0,-100.00,North,353,14.0,28.0,57,0.00,,,0.00,0.000000,,2013-02-10 11:52:00,
2013-02-10 05:01:00,25.0,12.0,-100.00,North,353,14.0,28.0,57,0.00,,,0.00,0.000000,,2013-02-10 12:01:00,
2013-02-10 08:32:00,26.0,9.0,-100.00,North,354,17.0,29.0,48,-99.99,,,0.00,2.000000,,2013-02-10 15:32:00,
2013-02-10 08:42:00,26.0,9.0,-100.00,North,354,17.0,29.0,48,-99.99,,,0.00,2.000000,,2013-02-10 15:42:00,
2013-02-10 08:52:00,26.0,9.0,-100.00,North,354,17.0,29.0,48,-99.99,,,0.00,2.000000,,2013-02-10 15:52:00,
2013-02-10 09:01:00,26.0,9.0,-100.00,North,354,17.0,29.0,48,-99.99,,,0.00,2.000000,,2013-02-10 16:01:00,
2013-02-10 09:32:00,25.0,11.0,-100.00,North,359,15.0,28.0,55,0.00,,,0.00,33.000000,,2013-02-10 16:32:00,
2013-02-10 09:42:00,25.0,11.0,-100.00,North,359,15.0,28.0,55,0.00,,,0.00,33.000000,,2013-02-10 16:42:00,
2013-02-10 09:52:00,25.0,11.0,-100.00,North,359,15.0,28.0,55,0.00,,,0.00,33.000000,,2013-02-10 16:52:00,
2013-02-10 10:01:00,25.0,11.0,-100.00,North,359,15.0,28.0,55,0.00,,,0.00,33.000000,,2013-02-10 17:01:00,
2013-02-10 10:32:00,26.0,9.0,-100.00,North,3,14.0,29.0,47,0.00,,,0.00,106.000000,,2013-02-10 17:32:00,
2013-02-10 10:42:00,26.0,9.0,-100.00,North,3,14.0,29.0,47,0.00,,,0.00,106.000000,,2013-02-10 17:42:00,
2013-02-10 10:52:00,26.0,9.0,-100.00,North,3,14.0,29.0,47,0.00,,,0.00,106.000000,,2013-02-10 17:52:00,
2013-02-10 11:01:00,26.0,9.0,-100.00,North,3,14.0,29.0,47,0.00,,,0.00,106.000000,,2013-02-10 18:01:00,
2013-02-10 11:32:00,28.0,8.0,-100.00,North,351,20.0,24.0,42,0.00,,,0.00,243.000000,,2013-02-10 18:32:00,
2013-02-10 11:42:00,28.0,8.0,-100.00,North,351,20.0,24.0,42,0.00,,,0.00,243.000000,,2013-02-10 18:42:00,
2013-02-10 11:52:00,28.0,8.0,-100.00,North,351,20.0,24.0,42,0.00,,,0.00,243.000000,,2013-02-10 18:52:00,
2013-02-10 12:01:00,28.0,8.0,-100.00,North,351,20.0,24.0,42,0.00,,,0.00,243.000000,,2013-02-10 19:01:00,
2013-02-10 12:32:00,29.0,7.0,-100.00,North,353,16.0,30.0,39,0.00,,,0.00,422.000000,,2013-02-10 19:32:00,
2013-02-10 12:43:00,29.0,7.0,-100.00,North,353,16.0,30.0,39,0.00,,,0.00,422.000000,,2013-02-10 19:43:00,
2013-02-10 12:52:00,29.0,7.0,-100.00,North,353,16.0,30.0,39,0.00,,,0.00,422.000000,,2013-02-10 19:52:00,
2013-02-10 13:01:00,29.0,7.0,-100.00,North,353,16.0,30.0,39,0.00,,,0.00,422.000000,,2013-02-10 20:01:00,
2013-02-10 13:22:00,29.0,5.0,-100.00,NNW,334,19.0,29.0,36,0.00,,,0.00,613.000000,,2013-02-10 20:22:00,
2013-02-10 13:32:00,29.0,5.0,-100.00,NNW,334,19.0,29.0,36,0.00,,,0.00,613.000000,,2013-02-10 20:32:00,
2013-02-10 13:42:00,29.0,5.0,-100.00,NNW,334,19.0,29.0,36,0.00,,,0.00,613.000000,,2013-02-10 20:42:00,
2013-02-10 13:52:00,29.0,5.0,-100.00,NNW,334,19.0,29.0,36,0.00,,,0.00,613.000000,,2013-02-10 20:52:00,
2013-02-10 14:02:00,29.0,5.0,-100.00,NNW,334,19.0,29.0,36,0.00,,,0.00,613.000000,,2013-02-10 21:02:00,
2013-02-10 14:32:00,27.0,4.0,-100.00,NNW,329,16.0,35.0,37,0.00,,,0.00,543.000000,,2013-02-10 21:32:00,
2013-02-10 14:42:00,27.0,4.0,-100.00,NNW,329,16.0,35.0,37,0.00,,,0.00,543.000000,,2013-02-10 21:42:00,
2013-02-10 14:52:00,27.0,4.0,-100.00,NNW,329,16.0,35.0,37,0.00,,,0.00,543.000000,,2013-02-10 21:52:00,
2013-02-10 15:01:00,27.0,4.0,-100.00,NNW,329,16.0,35.0,37,0.00,,,0.00,543.000000,,2013-02-10 22:01:00,
2013-02-10 15:32:00,29.0,5.0,-100.00,NNW,334,17.0,30.0,35,0.00,,,0.00,283.000000,,2013-02-10 22:32:00,
2013-02-10 15:42:00,29.0,5.0,-100.00,NNW,334,17.0,30.0,35,0.00,,,0.00,283.000000,,2013-02-10 22:42:00,
2013-02-10 15:52:00,29.0,5.0,-100.00,NNW,334,17.0,30.0,35,0.00,,,0.00,283.000000,,2013-02-10 22:52:00,
2013-02-10 16:01:00,29.0,5.0,-100.00,NNW,334,17.0,30.0,35,0.00,,,0.00,283.000000,,2013-02-10 23:01:00,
2013-02-10 16:22:00,28.0,5.0,-100.00,NNW,345,13.0,32.0,37,0.00,,,0.00,196.000000,,2013-02-10 23:22:00,
2013-02-10 16:32:00,28.0,5.0,-100.00,NNW,345,13.0,32.0,37,0.00,,,0.00,196.000000,,2013-02-10 23:32:00,
2013-02-10 16:42:00,28.0,5.0,-100.00,NNW,345,13.0,32.0,37,0.00,,,0.00,196.000000,,2013-02-10 23:42:00,
2013-02-10 16:52:00,28.0,5.0,-100.00,NNW,345,13.0,32.0,37,0.00,,,0.00,196.000000,,2013-02-10 23:52:00,
2013-02-10 17:01:00,28.0,5.0,-100.00,NNW,345,13.0,32.0,37,0.00,,,0.00,196.000000,,2013-02-11 00:01:00,
2013-02-10 17:32:00,28.0,5.0,-100.00,NW,304,10.0,26.0,37,0.00,,,0.00,55.000000,,2013-02-11 00:32:00,
2013-02-10 17:42:00,28.0,5.0,-100.00,NW,304,10.0,26.0,37,0.00,,,0.00,55.000000,,2013-02-11 00:42:00,
2013-02-10 17:52:00,28.0,5.0,-100.00,NW,304,10.0,26.0,37,0.00,,,0.00,55.000000,,2013-02-11 00:52:00,
2013-02-10 18:01:00,28.0,5.0,-100.00,NW,304,10.0,26.0,37,0.00,,,0.00,55.000000,,2013-02-11 01:01:00,
2013-02-10 18:32:00,25.0,4.0,-100.00,NW,316,8.0,22.0,40,0.00,,,0.00,17.000000,,2013-02-11 01:32:00,
2013-02-10 18:42:00,25.0,4.0,-100.00,NW,316,8.0,22.0,40,0.00,,,0.00,17.000000,,2013-02-11 01:42:00,
2013-02-10 18:52:00,25.0,4.0,-100.00,NW,316,8.0,22.0,40,0.00,,,0.00,17.000000,,2013-02-11 01:52:00,
2013-02-10 19:01:00,25.0,4.0,-100.00,NW,316,8.0,22.0,40,0.00,,,0.00,17.000000,,2013-02-11 02:01:00,
2013-02-10 19:32:00,21.0,4.0,-100.00,SSW,200,4.0,15.0,47,0.00,,,0.00,0.000000,,2013-02-11 02:32:00,
2013-02-10 19:42:00,21.0,4.0,-100.00,SSW,200,4.0,15.0,47,0.00,,,0.00,0.000000,,2013-02-11 02:42:00,
2013-02-10 19:52:00,21.0,4.0,-100.00,SSW,200,4.0,15.0,47,0.00,,,0.00,0.000000,,2013-02-11 02:52:00,
2013-02-10 20:01:00,21.0,4.0,-100.00,SSW,200,4.0,15.0,47,0.00,,,0.00,0.000000,,2013-02-11 03:01:00,
2013-02-10 20:21:00,20.0,5.0,-100.00,WSW,250,0.0,9.0,52,0.00,,,0.00,0.000000,,2013-02-11 03:21:00,
2013-02-10 20:32:00,20.0,5.0,-100.00,WSW,250,0.0,9.0,52,0.00,,,0.00,0.000000,,2013-02-11 03:32:00,
2013-02-10 20:42:00,20.0,5.0,-100.00,WSW,250,0.0,9.0,52,0.00,,,0.00,0.000000,,2013-02-11 03:42:00,
2013-02-10 20:52:00,20.0,5.0,-100.00,WSW,250,0.0,9.0,52,0.00,,,0.00,0.000000,,2013-02-11 03:52:00,
2013-02-10 21:01:00,20.0,5.0,-100.00,WSW,250,0.0,9.0,52,0.00,,,0.00,0.000000,,2013-02-11 04:01:00,
2013-02-10 21:22:00,17.0,4.0,-100.00,SW,236,5.0,7.0,56,0.00,,,0.00,0.000000,,2013-02-11 04:22:00,
2013-02-10 21:32:00,17.0,4.0,-100.00,SW,236,5.0,7.0,56,0.00,,,0.00,0.000000,,2013-02-11 04:32:00,
2013-02-10 21:42:00,17.0,4.0,-100.00,SW,236,5.0,7.0,56,0.00,,,0.00,0.000000,,2013-02-11 04:42:00,
2013-02-10 21:52:00,17.0,4.0,-100.00,SW,236,5.0,7.0,56,0.00,,,0.00,0.000000,,2013-02-11 04:52:00,
2013-02-10 22:01:00,17.0,4.0,-100.00,SW,236,5.0,7.0,56,0.00,,,0.00,0.000000,,2013-02-11 05:01:00,
2013-02-10 22:22:00,18.0,4.0,-100.00,NE,44,0.0,12.0,54,0.00,,,0.00,0.000000,,2013-02-11 05:22:00,
2013-02-10 22:32:00,18.0,4.0,-100.00,NE,44,0.0,12.0,54,0.00,,,0.00,0.000000,,2013-02-11 05:32:00,
2013-02-10 22:42:00,18.0,4.0,-100.00,NE,44,0.0,12.0,54,0.00,,,0.00,0.000000,,2013-02-11 05:42:00,
2013-02-10 22:52:00,18.0,4.0,-100.00,NE,44,0.0,12.0,54,0.00,,,0.00,0.000000,,2013-02-11 05:52:00,
2013-02-10 23:01:00,18.0,4.0,-100.00,NE,44,0.0,12.0,54,0.00,,,0.00,0.000000,,2013-02-11 06:01:00,
2013-02-10 23:32:00,14.0,3.0,-100.00,SW,218,2.0,7.0,60,-99.99,,,0.00,0.000000,,2013-02-11 06:32:00,
2013-02-10 23:42:00,14.0,3.0,-100.00,SW,218,2.0,7.0,60,-99.99,,,0.00,0.000000,,2013-02-11 06:42:00,
2013-02-10 23:52:00,14.0,3.0,-100.00,SW,218,2.0,7.0,60,-99.99,,,0.00,0.000000,,2013-02-11 06:52:00,